sensor_id;sensor_type;location;lat;lon;timestamp;P1;durP1;ratioP1;P2;durP2;ratioP2
67195;SDS011;54122;53.538;49.366;2023-03-23T00:01:03;33.85;;;13.57;;
67195;SDS011;54122;53.538;49.366;2023-03-23T00:03:31;33.95;;;12.95;;
67195;SDS011;54122;53.538;49.366;2023-03-23T00:05:58;34.95;;;13.52;;
67195;SDS011;54122;53.538;49.366;2023-03-23T00:08:32;38.33;;;13.45;;
67195;SDS011;54122;53.538;49.366;2023-03-23T00:10:59;31.45;;;13.27;;
67195;SDS011;54122;53.538;49.366;2023-03-23T00:13:27;33.70;;;12.68;;
67195;SDS011;54122;53.538;49.366;2023-03-23T00:15:54;34.65;;;14.00;;
67195;SDS011;54122;53.538;49.366;2023-03-23T00:18:22;29.08;;;12.00;;
67195;SDS011;54122;53.538;49.366;2023-03-23T00:20:50;37.20;;;13.82;;
67195;SDS011;54122;53.538;49.366;2023-03-23T00:23:17;38.35;;;13.20;;
67195;SDS011;54122;53.538;49.366;2023-03-23T00:25:48;30.77;;;13.45;;
67195;SDS011;54122;53.538;49.366;2023-03-23T00:28:25;32.15;;;13.50;;
67195;SDS011;54122;53.538;49.366;2023-03-23T00:30:56;35.38;;;13.88;;
67195;SDS011;54122;53.538;49.366;2023-03-23T00:33:24;34.53;;;11.93;;
67195;SDS011;54122;53.538;49.366;2023-03-23T00:35:54;32.13;;;13.93;;
67195;SDS011;54122;53.538;49.366;2023-03-23T00:38:21;37.83;;;14.15;;
67195;SDS011;54122;53.538;49.366;2023-03-23T00:40:49;37.22;;;13.45;;
67195;SDS011;54122;53.538;49.366;2023-03-23T00:43:16;41.35;;;14.60;;
67195;SDS011;54122;53.538;49.366;2023-03-23T00:45:45;35.17;;;13.38;;
67195;SDS011;54122;53.538;49.366;2023-03-23T00:48:19;29.20;;;13.73;;
67195;SDS011;54122;53.538;49.366;2023-03-23T00:50:46;31.88;;;14.25;;
67195;SDS011;54122;53.538;49.366;2023-03-23T00:53:13;36.80;;;14.35;;
67195;SDS011;54122;53.538;49.366;2023-03-23T00:55:43;32.20;;;13.02;;
67195;SDS011;54122;53.538;49.366;2023-03-23T00:58:11;48.53;;;13.60;;
67195;SDS011;54122;53.538;49.366;2023-03-23T01:00:39;30.13;;;14.10;;
67195;SDS011;54122;53.538;49.366;2023-03-23T01:03:06;42.25;;;12.90;;
67195;SDS011;54122;53.538;49.366;2023-03-23T01:05:36;35.53;;;14.27;;
67195;SDS011;54122;53.538;49.366;2023-03-23T01:08:05;39.67;;;14.52;;
67195;SDS011;54122;53.538;49.366;2023-03-23T01:10:32;37.50;;;14.40;;
67195;SDS011;54122;53.538;49.366;2023-03-23T01:13:00;31.00;;;12.77;;
67195;SDS011;54122;53.538;49.366;2023-03-23T01:15:27;27.17;;;13.18;;
67195;SDS011;54122;53.538;49.366;2023-03-23T01:17:54;35.67;;;14.32;;
67195;SDS011;54122;53.538;49.366;2023-03-23T01:20:21;36.92;;;13.35;;
67195;SDS011;54122;53.538;49.366;2023-03-23T01:22:48;35.08;;;13.63;;
67195;SDS011;54122;53.538;49.366;2023-03-23T01:25:14;32.47;;;13.68;;
67195;SDS011;54122;53.538;49.366;2023-03-23T01:27:41;29.88;;;12.95;;
67195;SDS011;54122;53.538;49.366;2023-03-23T01:30:08;27.25;;;13.02;;
67195;SDS011;54122;53.538;49.366;2023-03-23T01:32:37;34.75;;;13.95;;
67195;SDS011;54122;53.538;49.366;2023-03-23T01:35:05;38.15;;;14.43;;
67195;SDS011;54122;53.538;49.366;2023-03-23T01:37:31;33.03;;;14.95;;
67195;SDS011;54122;53.538;49.366;2023-03-23T01:39:58;41.38;;;15.15;;
67195;SDS011;54122;53.538;49.366;2023-03-23T01:42:25;35.33;;;14.00;;
67195;SDS011;54122;53.538;49.366;2023-03-23T01:45:17;43.38;;;14.18;;
67195;SDS011;54122;53.538;49.366;2023-03-23T01:48:20;37.13;;;13.63;;
67195;SDS011;54122;53.538;49.366;2023-03-23T01:51:08;39.38;;;14.50;;
67195;SDS011;54122;53.538;49.366;2023-03-23T01:53:39;33.55;;;15.30;;
67195;SDS011;54122;53.538;49.366;2023-03-23T01:56:14;39.78;;;14.98;;
67195;SDS011;54122;53.538;49.366;2023-03-23T01:58:44;41.70;;;15.80;;
67195;SDS011;54122;53.538;49.366;2023-03-23T02:01:13;34.67;;;14.32;;
67195;SDS011;54122;53.538;49.366;2023-03-23T02:03:41;49.55;;;15.25;;
67195;SDS011;54122;53.538;49.366;2023-03-23T02:06:11;40.25;;;15.73;;
67195;SDS011;54122;53.538;49.366;2023-03-23T02:08:37;41.65;;;15.50;;
67195;SDS011;54122;53.538;49.366;2023-03-23T02:11:13;46.45;;;17.10;;
67195;SDS011;54122;53.538;49.366;2023-03-23T02:13:41;50.65;;;16.63;;
67195;SDS011;54122;53.538;49.366;2023-03-23T02:35:21;52.63;;;18.85;;
67195;SDS011;54122;53.538;49.366;2023-03-23T02:37:57;55.50;;;18.80;;
67195;SDS011;54122;53.538;49.366;2023-03-23T02:40:43;53.75;;;18.35;;
67195;SDS011;54122;53.538;49.366;2023-03-23T02:43:16;49.53;;;18.67;;
67195;SDS011;54122;53.538;49.366;2023-03-23T02:45:46;50.00;;;19.20;;
67195;SDS011;54122;53.538;49.366;2023-03-23T02:48:15;57.25;;;20.10;;
67195;SDS011;54122;53.538;49.366;2023-03-23T02:50:46;56.17;;;19.45;;
67195;SDS011;54122;53.538;49.366;2023-03-23T02:53:17;49.85;;;19.70;;
67195;SDS011;54122;53.538;49.366;2023-03-23T02:55:47;50.40;;;19.85;;
67195;SDS011;54122;53.538;49.366;2023-03-23T02:58:14;46.92;;;18.95;;
67195;SDS011;54122;53.538;49.366;2023-03-23T03:00:41;51.10;;;18.42;;
67195;SDS011;54122;53.538;49.366;2023-03-23T03:03:13;49.83;;;18.48;;
67195;SDS011;54122;53.538;49.366;2023-03-23T03:11:12;48.50;;;16.65;;
67195;SDS011;54122;53.538;49.366;2023-03-23T03:13:49;55.70;;;18.20;;
67195;SDS011;54122;53.538;49.366;2023-03-23T03:16:40;43.90;;;17.17;;
67195;SDS011;54122;53.538;49.366;2023-03-23T03:19:37;37.65;;;17.75;;
67195;SDS011;54122;53.538;49.366;2023-03-23T03:22:07;41.25;;;16.58;;
67195;SDS011;54122;53.538;49.366;2023-03-23T03:24:34;37.80;;;17.58;;
67195;SDS011;54122;53.538;49.366;2023-03-23T03:27:10;40.55;;;17.10;;
67195;SDS011;54122;53.538;49.366;2023-03-23T03:29:40;48.08;;;16.25;;
67195;SDS011;54122;53.538;49.366;2023-03-23T03:32:08;38.75;;;17.27;;
67195;SDS011;54122;53.538;49.366;2023-03-23T03:34:42;46.85;;;16.10;;
67195;SDS011;54122;53.538;49.366;2023-03-23T03:37:09;39.17;;;17.98;;
67195;SDS011;54122;53.538;49.366;2023-03-23T03:39:37;38.53;;;15.88;;
67195;SDS011;54122;53.538;49.366;2023-03-23T03:42:04;39.60;;;16.77;;
67195;SDS011;54122;53.538;49.366;2023-03-23T03:44:32;38.08;;;15.43;;
67195;SDS011;54122;53.538;49.366;2023-03-23T03:46:59;32.13;;;14.90;;
67195;SDS011;54122;53.538;49.366;2023-03-23T03:49:26;35.35;;;14.98;;
67195;SDS011;54122;53.538;49.366;2023-03-23T03:51:52;37.40;;;15.15;;
67195;SDS011;54122;53.538;49.366;2023-03-23T03:54:19;32.97;;;14.45;;
67195;SDS011;54122;53.538;49.366;2023-03-23T03:56:45;37.20;;;13.75;;
67195;SDS011;54122;53.538;49.366;2023-03-23T03:59:12;31.95;;;15.10;;
67195;SDS011;54122;53.538;49.366;2023-03-23T04:01:38;32.17;;;14.88;;
67195;SDS011;54122;53.538;49.366;2023-03-23T04:04:05;32.75;;;15.10;;
67195;SDS011;54122;53.538;49.366;2023-03-23T04:06:34;29.38;;;14.07;;
67195;SDS011;54122;53.538;49.366;2023-03-23T04:09:05;34.05;;;14.82;;
67195;SDS011;54122;53.538;49.366;2023-03-23T04:11:33;31.67;;;14.95;;
67195;SDS011;54122;53.538;49.366;2023-03-23T04:13:59;30.52;;;13.73;;
67195;SDS011;54122;53.538;49.366;2023-03-23T04:16:26;35.17;;;14.20;;
67195;SDS011;54122;53.538;49.366;2023-03-23T04:18:55;28.10;;;13.57;;
67195;SDS011;54122;53.538;49.366;2023-03-23T04:21:22;27.83;;;13.18;;
67195;SDS011;54122;53.538;49.366;2023-03-23T04:23:48;27.15;;;13.00;;
67195;SDS011;54122;53.538;49.366;2023-03-23T04:26:16;56.85;;;14.30;;
67195;SDS011;54122;53.538;49.366;2023-03-23T04:28:43;32.72;;;12.98;;
67195;SDS011;54122;53.538;49.366;2023-03-23T04:31:09;35.60;;;13.40;;
67195;SDS011;54122;53.538;49.366;2023-03-23T04:33:38;32.80;;;12.80;;
67195;SDS011;54122;53.538;49.366;2023-03-23T04:36:06;22.27;;;12.52;;
67195;SDS011;54122;53.538;49.366;2023-03-23T04:38:32;29.52;;;12.60;;
67195;SDS011;54122;53.538;49.366;2023-03-23T04:40:59;25.88;;;11.70;;
67195;SDS011;54122;53.538;49.366;2023-03-23T04:43:28;23.45;;;12.40;;
67195;SDS011;54122;53.538;49.366;2023-03-23T04:45:55;28.35;;;11.60;;
67195;SDS011;54122;53.538;49.366;2023-03-23T04:48:27;21.55;;;11.23;;
67195;SDS011;54122;53.538;49.366;2023-03-23T04:50:55;23.70;;;11.45;;
67195;SDS011;54122;53.538;49.366;2023-03-23T04:53:25;19.48;;;10.68;;
67195;SDS011;54122;53.538;49.366;2023-03-23T04:55:51;21.35;;;11.45;;
67195;SDS011;54122;53.538;49.366;2023-03-23T04:58:18;20.27;;;10.13;;
67195;SDS011;54122;53.538;49.366;2023-03-23T05:00:44;22.83;;;10.68;;
67195;SDS011;54122;53.538;49.366;2023-03-23T05:03:18;20.60;;;10.32;;
67195;SDS011;54122;53.538;49.366;2023-03-23T05:05:45;19.05;;;9.82;;
67195;SDS011;54122;53.538;49.366;2023-03-23T05:08:18;24.55;;;8.32;;
67195;SDS011;54122;53.538;49.366;2023-03-23T05:10:55;21.02;;;9.90;;
67195;SDS011;54122;53.538;49.366;2023-03-23T05:13:23;21.88;;;10.30;;
67195;SDS011;54122;53.538;49.366;2023-03-23T05:15:49;17.95;;;9.20;;
67195;SDS011;54122;53.538;49.366;2023-03-23T05:18:16;18.70;;;8.63;;
67195;SDS011;54122;53.538;49.366;2023-03-23T05:20:43;17.48;;;7.68;;
67195;SDS011;54122;53.538;49.366;2023-03-23T05:23:11;15.75;;;8.35;;
67195;SDS011;54122;53.538;49.366;2023-03-23T05:25:38;13.35;;;7.97;;
67195;SDS011;54122;53.538;49.366;2023-03-23T05:28:06;20.77;;;9.00;;
67195;SDS011;54122;53.538;49.366;2023-03-23T05:30:34;17.70;;;8.38;;
67195;SDS011;54122;53.538;49.366;2023-03-23T05:33:01;20.15;;;8.65;;
67195;SDS011;54122;53.538;49.366;2023-03-23T05:35:28;19.88;;;8.18;;
67195;SDS011;54122;53.538;49.366;2023-03-23T05:37:54;16.55;;;8.10;;
67195;SDS011;54122;53.538;49.366;2023-03-23T05:40:22;15.75;;;7.57;;
67195;SDS011;54122;53.538;49.366;2023-03-23T05:42:51;18.08;;;7.93;;
67195;SDS011;54122;53.538;49.366;2023-03-23T05:45:18;18.85;;;7.93;;
67195;SDS011;54122;53.538;49.366;2023-03-23T05:47:44;17.50;;;7.68;;
67195;SDS011;54122;53.538;49.366;2023-03-23T05:50:11;19.92;;;8.85;;
67195;SDS011;54122;53.538;49.366;2023-03-23T05:52:41;20.67;;;8.20;;
67195;SDS011;54122;53.538;49.366;2023-03-23T05:55:08;16.00;;;7.32;;
67195;SDS011;54122;53.538;49.366;2023-03-23T05:57:35;21.38;;;7.20;;
67195;SDS011;54122;53.538;49.366;2023-03-23T06:00:02;19.02;;;8.05;;
67195;SDS011;54122;53.538;49.366;2023-03-23T06:02:46;14.52;;;7.28;;
67195;SDS011;54122;53.538;49.366;2023-03-23T06:05:14;18.60;;;8.38;;
67195;SDS011;54122;53.538;49.366;2023-03-23T06:07:41;15.07;;;7.63;;
67195;SDS011;54122;53.538;49.366;2023-03-23T06:10:08;19.88;;;7.70;;
67195;SDS011;54122;53.538;49.366;2023-03-23T06:12:36;21.13;;;8.30;;
67195;SDS011;54122;53.538;49.366;2023-03-23T06:15:04;14.77;;;6.97;;
67195;SDS011;54122;53.538;49.366;2023-03-23T06:17:32;25.95;;;13.82;;
67195;SDS011;54122;53.538;49.366;2023-03-23T06:19:59;16.05;;;7.30;;
67195;SDS011;54122;53.538;49.366;2023-03-23T06:22:26;15.60;;;6.78;;
67195;SDS011;54122;53.538;49.366;2023-03-23T06:24:52;11.98;;;6.22;;
67195;SDS011;54122;53.538;49.366;2023-03-23T06:27:18;13.52;;;6.55;;
67195;SDS011;54122;53.538;49.366;2023-03-23T06:29:45;18.55;;;6.63;;
67195;SDS011;54122;53.538;49.366;2023-03-23T06:32:12;12.95;;;6.57;;
67195;SDS011;54122;53.538;49.366;2023-03-23T06:34:39;19.40;;;7.28;;
67195;SDS011;54122;53.538;49.366;2023-03-23T06:37:09;14.80;;;6.40;;
67195;SDS011;54122;53.538;49.366;2023-03-23T06:39:36;10.40;;;5.07;;
67195;SDS011;54122;53.538;49.366;2023-03-23T06:42:04;15.43;;;5.85;;
67195;SDS011;54122;53.538;49.366;2023-03-23T06:44:34;11.65;;;6.05;;
67195;SDS011;54122;53.538;49.366;2023-03-23T06:47:00;7.95;;;4.07;;
67195;SDS011;54122;53.538;49.366;2023-03-23T06:49:27;15.52;;;3.80;;
67195;SDS011;54122;53.538;49.366;2023-03-23T06:51:54;6.80;;;2.38;;
67195;SDS011;54122;53.538;49.366;2023-03-23T06:54:25;7.23;;;2.73;;
67195;SDS011;54122;53.538;49.366;2023-03-23T06:56:52;5.45;;;2.85;;
67195;SDS011;54122;53.538;49.366;2023-03-23T06:59:19;5.97;;;2.60;;
67195;SDS011;54122;53.538;49.366;2023-03-23T07:01:45;4.18;;;2.50;;
67195;SDS011;54122;53.538;49.366;2023-03-23T07:04:12;2.72;;;1.70;;
67195;SDS011;54122;53.538;49.366;2023-03-23T07:06:39;4.38;;;2.38;;
67195;SDS011;54122;53.538;49.366;2023-03-23T07:09:06;6.60;;;2.80;;
67195;SDS011;54122;53.538;49.366;2023-03-23T07:11:32;4.07;;;2.25;;
67195;SDS011;54122;53.538;49.366;2023-03-23T07:13:59;7.25;;;2.85;;
67195;SDS011;54122;53.538;49.366;2023-03-23T07:16:25;19.25;;;2.10;;
67195;SDS011;54122;53.538;49.366;2023-03-23T07:18:52;4.65;;;2.08;;
67195;SDS011;54122;53.538;49.366;2023-03-23T07:21:18;4.40;;;2.10;;
67195;SDS011;54122;53.538;49.366;2023-03-23T07:23:45;7.72;;;2.45;;
67195;SDS011;54122;53.538;49.366;2023-03-23T07:26:12;4.45;;;2.28;;
67195;SDS011;54122;53.538;49.366;2023-03-23T07:28:39;2.95;;;2.00;;
67195;SDS011;54122;53.538;49.366;2023-03-23T07:31:08;5.50;;;2.22;;
67195;SDS011;54122;53.538;49.366;2023-03-23T07:33:36;3.63;;;2.00;;
67195;SDS011;54122;53.538;49.366;2023-03-23T07:36:03;3.38;;;2.28;;
67195;SDS011;54122;53.538;49.366;2023-03-23T07:38:30;11.23;;;2.03;;
67195;SDS011;54122;53.538;49.366;2023-03-23T07:40:56;7.90;;;2.28;;
67195;SDS011;54122;53.538;49.366;2023-03-23T07:43:24;6.75;;;2.70;;
67195;SDS011;54122;53.538;49.366;2023-03-23T07:45:50;5.57;;;2.38;;
67195;SDS011;54122;53.538;49.366;2023-03-23T07:48:17;12.40;;;2.70;;
67195;SDS011;54122;53.538;49.366;2023-03-23T07:50:44;11.40;;;2.90;;
67195;SDS011;54122;53.538;49.366;2023-03-23T07:53:10;9.77;;;2.72;;
67195;SDS011;54122;53.538;49.366;2023-03-23T07:55:37;7.30;;;3.00;;
67195;SDS011;54122;53.538;49.366;2023-03-23T07:58:03;7.00;;;2.97;;
67195;SDS011;54122;53.538;49.366;2023-03-23T08:00:30;11.18;;;2.92;;
67195;SDS011;54122;53.538;49.366;2023-03-23T08:02:58;14.07;;;3.63;;
67195;SDS011;54122;53.538;49.366;2023-03-23T08:05:26;11.02;;;3.88;;
67195;SDS011;54122;53.538;49.366;2023-03-23T08:07:53;12.75;;;3.30;;
67195;SDS011;54122;53.538;49.366;2023-03-23T08:10:21;6.68;;;3.28;;
67195;SDS011;54122;53.538;49.366;2023-03-23T08:12:52;5.25;;;3.10;;
67195;SDS011;54122;53.538;49.366;2023-03-23T08:15:21;13.73;;;3.17;;
67195;SDS011;54122;53.538;49.366;2023-03-23T08:17:48;17.75;;;3.47;;
67195;SDS011;54122;53.538;49.366;2023-03-23T08:20:16;9.25;;;3.20;;
67195;SDS011;54122;53.538;49.366;2023-03-23T08:22:48;5.22;;;2.90;;
67195;SDS011;54122;53.538;49.366;2023-03-23T08:25:18;8.18;;;3.28;;
67195;SDS011;54122;53.538;49.366;2023-03-23T08:27:45;12.43;;;3.38;;
67195;SDS011;54122;53.538;49.366;2023-03-23T08:30:12;14.65;;;4.03;;
67195;SDS011;54122;53.538;49.366;2023-03-23T08:32:45;12.20;;;3.45;;
67195;SDS011;54122;53.538;49.366;2023-03-23T08:35:12;49.35;;;4.35;;
67195;SDS011;54122;53.538;49.366;2023-03-23T08:37:41;10.20;;;3.10;;
67195;SDS011;54122;53.538;49.366;2023-03-23T08:40:09;5.13;;;2.78;;
67195;SDS011;54122;53.538;49.366;2023-03-23T08:42:37;6.07;;;3.20;;
67195;SDS011;54122;53.538;49.366;2023-03-23T08:45:05;9.07;;;3.72;;
67195;SDS011;54122;53.538;49.366;2023-03-23T08:47:34;7.00;;;3.30;;
67195;SDS011;54122;53.538;49.366;2023-03-23T08:50:01;12.48;;;3.97;;
67195;SDS011;54122;53.538;49.366;2023-03-23T08:52:28;7.03;;;3.55;;
67195;SDS011;54122;53.538;49.366;2023-03-23T08:54:55;7.90;;;4.18;;
67195;SDS011;54122;53.538;49.366;2023-03-23T08:57:23;8.48;;;4.10;;
67195;SDS011;54122;53.538;49.366;2023-03-23T08:59:52;10.30;;;4.22;;
67195;SDS011;54122;53.538;49.366;2023-03-23T09:02:27;8.27;;;3.95;;
67195;SDS011;54122;53.538;49.366;2023-03-23T09:04:53;10.20;;;4.03;;
67195;SDS011;54122;53.538;49.366;2023-03-23T09:07:20;21.45;;;3.55;;
67195;SDS011;54122;53.538;49.366;2023-03-23T09:09:46;12.30;;;4.75;;
67195;SDS011;54122;53.538;49.366;2023-03-23T09:12:13;7.68;;;4.35;;
67195;SDS011;54122;53.538;49.366;2023-03-23T09:14:40;6.57;;;4.13;;
67195;SDS011;54122;53.538;49.366;2023-03-23T09:17:06;8.80;;;4.13;;
67195;SDS011;54122;53.538;49.366;2023-03-23T09:19:34;7.72;;;4.30;;
67195;SDS011;54122;53.538;49.366;2023-03-23T09:22:01;8.60;;;4.25;;
67195;SDS011;54122;53.538;49.366;2023-03-23T09:24:28;10.38;;;4.00;;
67195;SDS011;54122;53.538;49.366;2023-03-23T09:26:54;11.68;;;4.70;;
67195;SDS011;54122;53.538;49.366;2023-03-23T09:29:21;9.40;;;4.55;;
67195;SDS011;54122;53.538;49.366;2023-03-23T09:31:47;11.23;;;4.90;;
67195;SDS011;54122;53.538;49.366;2023-03-23T09:34:14;11.65;;;4.35;;
67195;SDS011;54122;53.538;49.366;2023-03-23T09:36:41;7.43;;;4.25;;
67195;SDS011;54122;53.538;49.366;2023-03-23T09:39:08;7.50;;;4.35;;
67195;SDS011;54122;53.538;49.366;2023-03-23T09:49:32;8.70;;;4.32;;
67195;SDS011;54122;53.538;49.366;2023-03-23T09:52:01;7.70;;;4.82;;
67195;SDS011;54122;53.538;49.366;2023-03-23T09:54:39;15.55;;;4.35;;
67195;SDS011;54122;53.538;49.366;2023-03-23T09:57:28;5.68;;;3.83;;
67195;SDS011;54122;53.538;49.366;2023-03-23T10:03:05;24.98;;;10.48;;
67195;SDS011;54122;53.538;49.366;2023-03-23T10:08:18;12.05;;;5.07;;
67195;SDS011;54122;53.538;49.366;2023-03-23T10:16:32;7.55;;;4.18;;
67195;SDS011;54122;53.538;49.366;2023-03-23T10:22:02;13.50;;;4.57;;
67195;SDS011;54122;53.538;49.366;2023-03-23T10:24:36;15.57;;;10.48;;
67195;SDS011;54122;53.538;49.366;2023-03-23T10:27:19;9.57;;;4.43;;
67195;SDS011;54122;53.538;49.366;2023-03-23T10:30:03;7.63;;;4.32;;
67195;SDS011;54122;53.538;49.366;2023-03-23T10:32:55;9.77;;;3.92;;
67195;SDS011;54122;53.538;49.366;2023-03-23T10:35:29;9.13;;;4.22;;
67195;SDS011;54122;53.538;49.366;2023-03-23T10:38:05;6.95;;;3.40;;
67195;SDS011;54122;53.538;49.366;2023-03-23T10:40:43;7.40;;;4.03;;
67195;SDS011;54122;53.538;49.366;2023-03-23T10:43:22;9.77;;;4.70;;
67195;SDS011;54122;53.538;49.366;2023-03-23T10:45:53;8.88;;;4.70;;
67195;SDS011;54122;53.538;49.366;2023-03-23T10:48:29;9.05;;;4.55;;
67195;SDS011;54122;53.538;49.366;2023-03-23T10:51:02;6.65;;;3.53;;
67195;SDS011;54122;53.538;49.366;2023-03-23T10:55:58;8.85;;;4.50;;
67195;SDS011;54122;53.538;49.366;2023-03-23T10:58:27;10.93;;;4.25;;
67195;SDS011;54122;53.538;49.366;2023-03-23T11:00:55;9.60;;;5.28;;
67195;SDS011;54122;53.538;49.366;2023-03-23T11:03:24;12.20;;;4.90;;
67195;SDS011;54122;53.538;49.366;2023-03-23T11:06:24;11.48;;;6.18;;
67195;SDS011;54122;53.538;49.366;2023-03-23T11:09:09;9.65;;;5.80;;
67195;SDS011;54122;53.538;49.366;2023-03-23T11:11:40;21.58;;;5.88;;
67195;SDS011;54122;53.538;49.366;2023-03-23T11:16:59;17.25;;;8.95;;
67195;SDS011;54122;53.538;49.366;2023-03-23T11:19:32;14.75;;;6.25;;
67195;SDS011;54122;53.538;49.366;2023-03-23T11:24:40;13.10;;;6.30;;
67195;SDS011;54122;53.538;49.366;2023-03-23T11:27:12;11.52;;;6.70;;
67195;SDS011;54122;53.538;49.366;2023-03-23T11:29:48;14.25;;;7.40;;
67195;SDS011;54122;53.538;49.366;2023-03-23T11:32:17;15.63;;;6.32;;
67195;SDS011;54122;53.538;49.366;2023-03-23T11:34:47;11.02;;;6.53;;
67195;SDS011;54122;53.538;49.366;2023-03-23T11:37:41;13.13;;;6.28;;
67195;SDS011;54122;53.538;49.366;2023-03-23T11:42:46;12.25;;;6.38;;
67195;SDS011;54122;53.538;49.366;2023-03-23T11:45:18;12.90;;;6.70;;
67195;SDS011;54122;53.538;49.366;2023-03-23T11:50:34;13.63;;;6.18;;
67195;SDS011;54122;53.538;49.366;2023-03-23T11:56:25;40.60;;;6.63;;
67195;SDS011;54122;53.538;49.366;2023-03-23T11:58:56;13.52;;;6.20;;
67195;SDS011;54122;53.538;49.366;2023-03-23T12:23:38;13.52;;;6.63;;
67195;SDS011;54122;53.538;49.366;2023-03-23T12:26:20;13.00;;;7.10;;
67195;SDS011;54122;53.538;49.366;2023-03-23T12:37:48;18.25;;;8.93;;
67195;SDS011;54122;53.538;49.366;2023-03-23T12:43:25;18.75;;;8.90;;
67195;SDS011;54122;53.538;49.366;2023-03-23T12:57:11;18.67;;;9.15;;
67195;SDS011;54122;53.538;49.366;2023-03-23T13:04:55;15.85;;;9.50;;
67195;SDS011;54122;53.538;49.366;2023-03-23T13:07:56;24.85;;;10.02;;
67195;SDS011;54122;53.538;49.366;2023-03-23T13:10:29;18.55;;;9.77;;
67195;SDS011;54122;53.538;49.366;2023-03-23T13:13:06;16.17;;;9.65;;
67195;SDS011;54122;53.538;49.366;2023-03-23T13:23:40;20.55;;;10.15;;
67195;SDS011;54122;53.538;49.366;2023-03-23T13:26:11;22.10;;;10.02;;
67195;SDS011;54122;53.538;49.366;2023-03-23T13:28:50;19.65;;;9.77;;
67195;SDS011;54122;53.538;49.366;2023-03-23T13:31:24;21.23;;;9.95;;
67195;SDS011;54122;53.538;49.366;2023-03-23T13:34:05;20.35;;;11.30;;
67195;SDS011;54122;53.538;49.366;2023-03-23T13:39:04;17.13;;;10.57;;
67195;SDS011;54122;53.538;49.366;2023-03-23T13:44:19;22.77;;;10.40;;
67195;SDS011;54122;53.538;49.366;2023-03-23T13:46:54;24.38;;;12.43;;
67195;SDS011;54122;53.538;49.366;2023-03-23T13:49:32;25.73;;;12.45;;
67195;SDS011;54122;53.538;49.366;2023-03-23T13:52:00;22.40;;;11.02;;
67195;SDS011;54122;53.538;49.366;2023-03-23T13:54:40;19.77;;;9.95;;
67195;SDS011;54122;53.538;49.366;2023-03-23T13:57:33;17.83;;;9.52;;
67195;SDS011;54122;53.538;49.366;2023-03-23T14:03:03;19.30;;;10.27;;
67195;SDS011;54122;53.538;49.366;2023-03-23T14:05:33;19.08;;;11.00;;
67195;SDS011;54122;53.538;49.366;2023-03-23T14:08:12;19.88;;;10.63;;
67195;SDS011;54122;53.538;49.366;2023-03-23T14:10:49;22.05;;;11.00;;
67195;SDS011;54122;53.538;49.366;2023-03-23T14:16:04;20.30;;;11.32;;
67195;SDS011;54122;53.538;49.366;2023-03-23T14:18:41;20.23;;;11.15;;
67195;SDS011;54122;53.538;49.366;2023-03-23T14:21:14;24.08;;;12.18;;
67195;SDS011;54122;53.538;49.366;2023-03-23T14:24:11;25.33;;;11.68;;
67195;SDS011;54122;53.538;49.366;2023-03-23T14:26:41;24.33;;;11.43;;
67195;SDS011;54122;53.538;49.366;2023-03-23T14:29:09;23.33;;;11.77;;
67195;SDS011;54122;53.538;49.366;2023-03-23T14:31:38;28.13;;;13.60;;
67195;SDS011;54122;53.538;49.366;2023-03-23T14:34:12;24.58;;;12.48;;
67195;SDS011;54122;53.538;49.366;2023-03-23T14:36:40;36.70;;;20.70;;
67195;SDS011;54122;53.538;49.366;2023-03-23T14:39:23;34.70;;;17.17;;
67195;SDS011;54122;53.538;49.366;2023-03-23T14:42:04;31.08;;;17.60;;
67195;SDS011;54122;53.538;49.366;2023-03-23T14:44:37;71.15;;;34.72;;
67195;SDS011;54122;53.538;49.366;2023-03-23T14:47:17;29.27;;;13.18;;
67195;SDS011;54122;53.538;49.366;2023-03-23T14:49:58;19.63;;;10.55;;
67195;SDS011;54122;53.538;49.366;2023-03-23T14:52:27;29.50;;;11.57;;
67195;SDS011;54122;53.538;49.366;2023-03-23T14:54:55;25.48;;;11.80;;
67195;SDS011;54122;53.538;49.366;2023-03-23T14:57:33;22.63;;;10.88;;
67195;SDS011;54122;53.538;49.366;2023-03-23T15:00:00;20.45;;;10.25;;
67195;SDS011;54122;53.538;49.366;2023-03-23T15:02:31;30.50;;;10.82;;
67195;SDS011;54122;53.538;49.366;2023-03-23T15:05:05;27.90;;;10.80;;
67195;SDS011;54122;53.538;49.366;2023-03-23T15:07:42;18.50;;;10.55;;
67195;SDS011;54122;53.538;49.366;2023-03-23T15:10:16;28.48;;;9.90;;
67195;SDS011;54122;53.538;49.366;2023-03-23T15:12:45;21.75;;;11.20;;
67195;SDS011;54122;53.538;49.366;2023-03-23T15:15:20;19.95;;;10.55;;
67195;SDS011;54122;53.538;49.366;2023-03-23T15:17:58;22.40;;;10.63;;
67195;SDS011;54122;53.538;49.366;2023-03-23T15:20:30;15.25;;;8.05;;
67195;SDS011;54122;53.538;49.366;2023-03-23T15:26:03;15.27;;;8.82;;
67195;SDS011;54122;53.538;49.366;2023-03-23T15:28:39;18.58;;;8.95;;
67195;SDS011;54122;53.538;49.366;2023-03-23T15:31:06;18.02;;;9.98;;
67195;SDS011;54122;53.538;49.366;2023-03-23T15:33:36;27.50;;;12.00;;
67195;SDS011;54122;53.538;49.366;2023-03-23T15:36:08;23.55;;;11.15;;
67195;SDS011;54122;53.538;49.366;2023-03-23T15:38:44;18.65;;;10.75;;
67195;SDS011;54122;53.538;49.366;2023-03-23T15:41:26;20.40;;;9.60;;
67195;SDS011;54122;53.538;49.366;2023-03-23T15:43:57;22.15;;;11.00;;
67195;SDS011;54122;53.538;49.366;2023-03-23T15:46:26;43.17;;;11.25;;
67195;SDS011;54122;53.538;49.366;2023-03-23T15:51:27;22.92;;;12.48;;
67195;SDS011;54122;53.538;49.366;2023-03-23T15:53:55;20.48;;;11.32;;
67195;SDS011;54122;53.538;49.366;2023-03-23T15:56:23;25.85;;;12.77;;
67195;SDS011;54122;53.538;49.366;2023-03-23T15:58:51;26.83;;;12.13;;
67195;SDS011;54122;53.538;49.366;2023-03-23T16:01:20;22.98;;;11.07;;
67195;SDS011;54122;53.538;49.366;2023-03-23T16:03:53;28.33;;;12.75;;
67195;SDS011;54122;53.538;49.366;2023-03-23T16:06:26;26.60;;;12.60;;
67195;SDS011;54122;53.538;49.366;2023-03-23T16:08:55;24.25;;;11.60;;
67195;SDS011;54122;53.538;49.366;2023-03-23T16:11:23;19.08;;;10.40;;
67195;SDS011;54122;53.538;49.366;2023-03-23T16:13:52;25.83;;;12.10;;
67195;SDS011;54122;53.538;49.366;2023-03-23T16:16:41;21.33;;;10.52;;
67195;SDS011;54122;53.538;49.366;2023-03-23T16:19:11;22.23;;;10.87;;
67195;SDS011;54122;53.538;49.366;2023-03-23T16:21:40;19.45;;;10.77;;
67195;SDS011;54122;53.538;49.366;2023-03-23T16:24:07;32.40;;;12.73;;
67195;SDS011;54122;53.538;49.366;2023-03-23T16:26:35;27.05;;;11.45;;
67195;SDS011;54122;53.538;49.366;2023-03-23T16:29:04;22.17;;;10.82;;
67195;SDS011;54122;53.538;49.366;2023-03-23T16:31:36;26.45;;;12.55;;
67195;SDS011;54122;53.538;49.366;2023-03-23T16:34:02;35.67;;;11.68;;
67195;SDS011;54122;53.538;49.366;2023-03-23T16:36:29;22.13;;;12.07;;
67195;SDS011;54122;53.538;49.366;2023-03-23T16:38:55;23.50;;;12.73;;
67195;SDS011;54122;53.538;49.366;2023-03-23T16:41:22;24.05;;;12.05;;
67195;SDS011;54122;53.538;49.366;2023-03-23T16:43:48;25.30;;;10.23;;
67195;SDS011;54122;53.538;49.366;2023-03-23T16:46:15;23.42;;;11.07;;
67195;SDS011;54122;53.538;49.366;2023-03-23T16:48:41;17.48;;;9.55;;
67195;SDS011;54122;53.538;49.366;2023-03-23T16:51:07;29.02;;;11.02;;
67195;SDS011;54122;53.538;49.366;2023-03-23T16:53:34;26.95;;;11.38;;